Hirtshals, Denmark
Current Conditions -  °F | °C
As of 2:20 PM on Tuesday 21 Oct 2014 (Local Time) from EKYT Reporting Station
Broken Clouds Broken Clouds  
Wind Chill: 55°   Ceiling: 5400
Heat Index: 55°   Visibility: 6mi
Dew Point: 52°   Wind: 14mph
Humidity: 88%   Direction: 140°SE
Pressure: 29.38"   Gusts: NA
Location:  57.59°N, 9.96°E
Report Text: EKYT 211220Z 14012KT 9999 FEW012 BKN054 13/11 Q0995
Loading
Personal Weather Stations






























Interactive Weather Map
Tropical Storm Tracking
New forecast layout! Learn more

10-Day Weather Forecast

Advertisements
Track Severe Weather on mobile